WZZ6779 LIME-LBSF
Flight info
| Callsign | WZZ6779 |
|---|---|
| Flight time | 1h 29m |
| Altitude | 37000 |
| Route | OSKOR DCT NEVNI DCT LABIN DCT ULPIN DCT ELTIB DCT MITNO DCT RAMAP DCT GINAM DCT AZBUX DCT NISVA |
| Aircraft | A321/M-SDE3FGHIRWY/LB1 |
Departure
| Time | 2026-04-27 19:54 |
|---|---|
| Airport | Il Caravaggio International Airport (LIME) |
Arrival
| Time | 2026-04-27 21:23 |
|---|---|
| Airport | Sofia Airport (LBSF) |
| Time | Latitude | Longitude | Altitude | Speed | Heading |
|---|---|---|---|---|---|
| 2026-04-27 19:42 | 45.66637 | 9.70057 | 797 ft | 0 kts | 194° |
| 2026-04-27 19:44 | 45.66643 | 9.70060 | 797 ft | 2 kts | 192° |
| 2026-04-27 19:45 | 45.66663 | 9.70065 | 797 ft | 3 kts | 185° |
| 2026-04-27 19:45 | 45.66683 | 9.70066 | 797 ft | 3 kts | 176° |
| 2026-04-27 19:45 | 45.66703 | 9.70063 | 797 ft | 3 kts | 165° |
| 2026-04-27 19:45 | 45.66722 | 9.70053 | 797 ft | 3 kts | 147° |
| 2026-04-27 19:46 | 45.66736 | 9.70036 | 797 ft | 3 kts | 118° |
| 2026-04-27 19:46 | 45.66740 | 9.70024 | 797 ft | 0 kts | 104° |
| 2026-04-27 19:48 | 45.66737 | 9.70041 | 796 ft | 3 kts | 104° |
| 2026-04-27 19:49 | 45.66728 | 9.70089 | 796 ft | 7 kts | 103° |
| 2026-04-27 19:49 | 45.66714 | 9.70168 | 796 ft | 10 kts | 105° |
| 2026-04-27 19:49 | 45.66694 | 9.70276 | 796 ft | 13 kts | 105° |
| 2026-04-27 19:49 | 45.66668 | 9.70413 | 796 ft | 16 kts | 105° |
| 2026-04-27 19:50 | 45.66637 | 9.70575 | 796 ft | 18 kts | 105° |
| 2026-04-27 19:50 | 45.66602 | 9.70763 | 796 ft | 21 kts | 104° |
| 2026-04-27 19:50 | 45.66564 | 9.70975 | 796 ft | 23 kts | 105° |
| 2026-04-27 19:50 | 45.66508 | 9.71202 | 796 ft | 25 kts | 110° |
| 2026-04-27 19:51 | 45.66463 | 9.71430 | 796 ft | 24 kts | 104° |
| 2026-04-27 19:51 | 45.66446 | 9.71650 | 796 ft | 20 kts | 77° |
| 2026-04-27 19:51 | 45.66472 | 9.71848 | 796 ft | 17 kts | 97° |
| 2026-04-27 19:51 | 45.66445 | 9.72018 | 796 ft | 17 kts | 104° |
| 2026-04-27 19:52 | 45.66413 | 9.72192 | 796 ft | 19 kts | 105° |
| 2026-04-27 19:52 | 45.66385 | 9.72338 | 796 ft | 7 kts | 104° |
| 2026-04-27 19:52 | 45.66374 | 9.72417 | 796 ft | 10 kts | 92° |
| 2026-04-27 19:52 | 45.66382 | 9.72527 | 796 ft | 13 kts | 79° |
| 2026-04-27 19:53 | 45.66465 | 9.72420 | 796 ft | 25 kts | 286° |
| 2026-04-27 19:53 | 45.66571 | 9.71854 | 797 ft | 94 kts | 285° |
| 2026-04-27 19:53 | 45.66793 | 9.70655 | 797 ft | 153 kts | 285° |
| 2026-04-27 19:54 | 45.67093 | 9.69021 | 1103 ft | 171 kts | 285° |
| 2026-04-27 19:54 | 45.67249 | 9.67362 | 1728 ft | 176 kts | 261° |
| 2026-04-27 19:54 | 45.66581 | 9.65896 | 2291 ft | 178 kts | 224° |
| 2026-04-27 19:54 | 45.65705 | 9.64683 | 3007 ft | 177 kts | 224° |
| 2026-04-27 19:55 | 45.64816 | 9.63433 | 3526 ft | 181 kts | 225° |
| 2026-04-27 19:55 | 45.63923 | 9.62130 | 4047 ft | 186 kts | 226° |
| 2026-04-27 19:55 | 45.62993 | 9.60789 | 4469 ft | 197 kts | 225° |
| 2026-04-27 19:55 | 45.61987 | 9.59379 | 4961 ft | 205 kts | 225° |
| 2026-04-27 19:56 | 45.60944 | 9.57920 | 5422 ft | 215 kts | 224° |
| 2026-04-27 19:56 | 45.59872 | 9.56401 | 6008 ft | 217 kts | 225° |
| 2026-04-27 19:56 | 45.58811 | 9.54871 | 6642 ft | 219 kts | 223° |
| 2026-04-27 19:56 | 45.57407 | 9.54041 | 6995 ft | 229 kts | 177° |
| 2026-04-27 19:57 | 45.55942 | 9.54870 | 7574 ft | 228 kts | 144° |
| 2026-04-27 19:57 | 45.54889 | 9.56528 | 8271 ft | 225 kts | 122° |
| 2026-04-27 19:57 | 45.54307 | 9.58569 | 8965 ft | 221 kts | 106° |
| 2026-04-27 19:57 | 45.53961 | 9.60727 | 9340 ft | 234 kts | 102° |
| 2026-04-27 19:58 | 45.53649 | 9.63059 | 9696 ft | 246 kts | 101° |
| 2026-04-27 19:58 | 45.53315 | 9.65567 | 10024 ft | 261 kts | 102° |
| 2026-04-27 19:58 | 45.52939 | 9.68169 | 10424 ft | 275 kts | 103° |
| 2026-04-27 19:58 | 45.52526 | 9.70915 | 10692 ft | 293 kts | 102° |
| 2026-04-27 19:59 | 45.52097 | 9.73863 | 10903 ft | 313 kts | 102° |
| 2026-04-27 19:59 | 45.51655 | 9.77003 | 11117 ft | 332 kts | 101° |
| 2026-04-27 19:59 | 45.51194 | 9.80324 | 11334 ft | 350 kts | 101° |
| 2026-04-27 19:59 | 45.50707 | 9.83792 | 11660 ft | 362 kts | 101° |
| 2026-04-27 20:00 | 45.50195 | 9.87329 | 12236 ft | 366 kts | 101° |
| 2026-04-27 20:00 | 45.49673 | 9.90894 | 12847 ft | 369 kts | 101° |
| 2026-04-27 20:00 | 45.49149 | 9.94484 | 13428 ft | 372 kts | 101° |
| 2026-04-27 20:00 | 45.48623 | 9.98112 | 13995 ft | 375 kts | 101° |
| 2026-04-27 20:01 | 45.48096 | 10.01761 | 14542 ft | 378 kts | 101° |
| 2026-04-27 20:01 | 45.47568 | 10.05397 | 15047 ft | 381 kts | 101° |
| 2026-04-27 20:01 | 45.47031 | 10.09117 | 15466 ft | 387 kts | 100° |
| 2026-04-27 20:01 | 45.46470 | 10.12980 | 15773 ft | 397 kts | 100° |
| 2026-04-27 20:02 | 45.45908 | 10.16790 | 16312 ft | 399 kts | 100° |
| 2026-04-27 20:02 | 45.45326 | 10.20716 | 16858 ft | 401 kts | 100° |
| 2026-04-27 20:02 | 45.44749 | 10.24615 | 17361 ft | 404 kts | 100° |
| 2026-04-27 20:02 | 45.44172 | 10.28543 | 17851 ft | 407 kts | 100° |
| 2026-04-27 20:03 | 45.43590 | 10.32501 | 18332 ft | 410 kts | 100° |
| 2026-04-27 20:03 | 45.43001 | 10.36478 | 18822 ft | 412 kts | 101° |
| 2026-04-27 20:03 | 45.42402 | 10.40477 | 19295 ft | 414 kts | 101° |
| 2026-04-27 20:03 | 45.41802 | 10.44501 | 19748 ft | 417 kts | 101° |
| 2026-04-27 20:04 | 45.41197 | 10.48554 | 20188 ft | 420 kts | 101° |
| 2026-04-27 20:04 | 45.40587 | 10.52630 | 20617 ft | 422 kts | 101° |
| 2026-04-27 20:04 | 45.39980 | 10.56671 | 21029 ft | 425 kts | 101° |
| 2026-04-27 20:04 | 45.39349 | 10.60853 | 21399 ft | 429 kts | 101° |
| 2026-04-27 20:05 | 45.38727 | 10.64962 | 21767 ft | 432 kts | 101° |
| 2026-04-27 20:05 | 45.38092 | 10.69151 | 22155 ft | 434 kts | 101° |
| 2026-04-27 20:05 | 45.37453 | 10.73361 | 22535 ft | 437 kts | 101° |
| 2026-04-27 20:05 | 45.36809 | 10.77594 | 22907 ft | 439 kts | 101° |
| 2026-04-27 20:06 | 45.36158 | 10.81853 | 23272 ft | 442 kts | 101° |
| 2026-04-27 20:06 | 45.35503 | 10.86130 | 23629 ft | 444 kts | 101° |
| 2026-04-27 20:06 | 45.34843 | 10.90429 | 23975 ft | 446 kts | 101° |
| 2026-04-27 20:06 | 45.34176 | 10.94746 | 24314 ft | 448 kts | 101° |
| 2026-04-27 20:07 | 45.33505 | 10.99088 | 24634 ft | 451 kts | 101° |
| 2026-04-27 20:07 | 45.32830 | 11.03450 | 24955 ft | 453 kts | 101° |
| 2026-04-27 20:07 | 45.32148 | 11.07835 | 25283 ft | 455 kts | 101° |
| 2026-04-27 20:07 | 45.31462 | 11.12235 | 25602 ft | 457 kts | 101° |
| 2026-04-27 20:08 | 45.30772 | 11.16656 | 25905 ft | 459 kts | 101° |
| 2026-04-27 20:08 | 45.30078 | 11.21087 | 26209 ft | 461 kts | 101° |
| 2026-04-27 20:08 | 45.29381 | 11.25534 | 26499 ft | 463 kts | 101° |
| 2026-04-27 20:08 | 45.28669 | 11.30070 | 26788 ft | 465 kts | 101° |
| 2026-04-27 20:09 | 45.27973 | 11.34494 | 27046 ft | 467 kts | 102° |
| 2026-04-27 20:09 | 45.27256 | 11.38996 | 27321 ft | 469 kts | 101° |
| 2026-04-27 20:09 | 45.26535 | 11.43515 | 27600 ft | 470 kts | 101° |
| 2026-04-27 20:09 | 45.25817 | 11.48051 | 27872 ft | 472 kts | 101° |
| 2026-04-27 20:10 | 45.25096 | 11.52601 | 28127 ft | 473 kts | 101° |
| 2026-04-27 20:10 | 45.24365 | 11.57168 | 28377 ft | 475 kts | 101° |
| 2026-04-27 20:10 | 45.23630 | 11.61742 | 28630 ft | 476 kts | 101° |
| 2026-04-27 20:10 | 45.22891 | 11.66332 | 28872 ft | 478 kts | 101° |
| 2026-04-27 20:11 | 45.22149 | 11.70936 | 29106 ft | 479 kts | 101° |
| 2026-04-27 20:11 | 45.21401 | 11.75551 | 29333 ft | 481 kts | 102° |
| 2026-04-27 20:11 | 45.20651 | 11.80174 | 29602 ft | 481 kts | 102° |
| 2026-04-27 20:11 | 45.19902 | 11.84785 | 29898 ft | 480 kts | 102° |
| 2026-04-27 20:12 | 45.19153 | 11.89394 | 30192 ft | 479 kts | 102° |
| 2026-04-27 20:12 | 45.18655 | 11.92442 | 30376 ft | 479 kts | 102° |
| 2026-04-27 20:12 | 45.17649 | 11.98581 | 30754 ft | 478 kts | 102° |
| 2026-04-27 20:12 | 45.16897 | 12.03164 | 31027 ft | 477 kts | 101° |
| 2026-04-27 20:13 | 45.16145 | 12.07737 | 31288 ft | 477 kts | 102° |
| 2026-04-27 20:13 | 45.15389 | 12.12308 | 31547 ft | 476 kts | 102° |
| 2026-04-27 20:13 | 45.14632 | 12.16869 | 31808 ft | 475 kts | 102° |
| 2026-04-27 20:13 | 45.13875 | 12.21417 | 32053 ft | 474 kts | 102° |
| 2026-04-27 20:14 | 45.13117 | 12.25972 | 32218 ft | 476 kts | 101° |
| 2026-04-27 20:14 | 45.12355 | 12.30529 | 32444 ft | 475 kts | 101° |
| 2026-04-27 20:14 | 45.11592 | 12.35085 | 32694 ft | 475 kts | 101° |
| 2026-04-27 20:14 | 45.10830 | 12.39620 | 32962 ft | 473 kts | 101° |
| 2026-04-27 20:15 | 45.10067 | 12.44148 | 33187 ft | 473 kts | 102° |
| 2026-04-27 20:15 | 45.09305 | 12.48671 | 33410 ft | 472 kts | 101° |
| 2026-04-27 20:15 | 45.08542 | 12.53181 | 33640 ft | 471 kts | 102° |
| 2026-04-27 20:15 | 45.07777 | 12.57684 | 33842 ft | 471 kts | 102° |
| 2026-04-27 20:16 | 45.07011 | 12.62187 | 34045 ft | 470 kts | 102° |
| 2026-04-27 20:16 | 45.06244 | 12.66681 | 34239 ft | 470 kts | 102° |
| 2026-04-27 20:16 | 45.05474 | 12.71171 | 34424 ft | 470 kts | 102° |
| 2026-04-27 20:16 | 45.04704 | 12.75656 | 34625 ft | 469 kts | 102° |
| 2026-04-27 20:17 | 45.03937 | 12.80132 | 34807 ft | 469 kts | 102° |
| 2026-04-27 20:17 | 45.03168 | 12.84606 | 35015 ft | 468 kts | 102° |
| 2026-04-27 20:17 | 45.02398 | 12.89071 | 35190 ft | 467 kts | 102° |
| 2026-04-27 20:17 | 45.01876 | 12.92081 | 35305 ft | 467 kts | 102° |
| 2026-04-27 20:18 | 45.00851 | 12.97982 | 35518 ft | 467 kts | 102° |
| 2026-04-27 20:18 | 45.00075 | 13.02435 | 35677 ft | 467 kts | 102° |
| 2026-04-27 20:18 | 44.99298 | 13.06886 | 35818 ft | 466 kts | 102° |
| 2026-04-27 20:18 | 44.98521 | 13.11327 | 35952 ft | 466 kts | 102° |
| 2026-04-27 20:19 | 44.97742 | 13.15771 | 36094 ft | 466 kts | 102° |
| 2026-04-27 20:19 | 44.96961 | 13.20213 | 36233 ft | 466 kts | 102° |
| 2026-04-27 20:19 | 44.96180 | 13.24649 | 36367 ft | 466 kts | 102° |
| 2026-04-27 20:19 | 44.95397 | 13.29081 | 36493 ft | 465 kts | 102° |
| 2026-04-27 20:20 | 44.93819 | 13.37972 | 36550 ft | 470 kts | 102° |
| 2026-04-27 20:20 | 44.93024 | 13.42435 | 36683 ft | 469 kts | 102° |
| 2026-04-27 20:20 | 44.92228 | 13.46895 | 36812 ft | 468 kts | 102° |
| 2026-04-27 20:21 | 44.91433 | 13.51345 | 36927 ft | 468 kts | 102° |
| 2026-04-27 20:21 | 44.90636 | 13.55800 | 37037 ft | 468 kts | 102° |
| 2026-04-27 20:21 | 44.89036 | 13.64687 | 37104 ft | 467 kts | 102° |
| 2026-04-27 20:22 | 44.87430 | 13.73559 | 37113 ft | 467 kts | 102° |
| 2026-04-27 20:22 | 44.86082 | 13.80983 | 37117 ft | 467 kts | 102° |
| 2026-04-27 20:23 | 44.84463 | 13.89846 | 37121 ft | 467 kts | 102° |
| 2026-04-27 20:23 | 44.82851 | 13.98640 | 37129 ft | 467 kts | 102° |
| 2026-04-27 20:24 | 44.81221 | 14.07488 | 37135 ft | 467 kts | 103° |
| 2026-04-27 20:24 | 44.79584 | 14.16330 | 37144 ft | 466 kts | 103° |
| 2026-04-27 20:25 | 44.77942 | 14.25165 | 37144 ft | 467 kts | 103° |
| 2026-04-27 20:25 | 44.76292 | 14.33996 | 37139 ft | 467 kts | 103° |
| 2026-04-27 20:26 | 44.74633 | 14.42826 | 37131 ft | 467 kts | 103° |
| 2026-04-27 20:26 | 44.72970 | 14.51653 | 37136 ft | 467 kts | 103° |
| 2026-04-27 20:27 | 44.71296 | 14.60484 | 37099 ft | 468 kts | 103° |
| 2026-04-27 20:27 | 44.69667 | 14.69335 | 37094 ft | 467 kts | 102° |
| 2026-04-27 20:28 | 44.68116 | 14.78206 | 37083 ft | 468 kts | 102° |
| 2026-04-27 20:28 | 44.66826 | 14.85578 | 37083 ft | 468 kts | 102° |
| 2026-04-27 20:29 | 44.64993 | 14.95940 | 37077 ft | 468 kts | 102° |
| 2026-04-27 20:29 | 44.63414 | 15.04806 | 37083 ft | 468 kts | 102° |
| 2026-04-27 20:30 | 44.61831 | 15.13678 | 37072 ft | 469 kts | 102° |
| 2026-04-27 20:30 | 44.60238 | 15.22553 | 37090 ft | 469 kts | 102° |
| 2026-04-27 20:31 | 44.58639 | 15.31422 | 37110 ft | 469 kts | 102° |
| 2026-04-27 20:31 | 44.57032 | 15.40293 | 37124 ft | 469 kts | 102° |
| 2026-04-27 20:32 | 44.55415 | 15.49163 | 37146 ft | 469 kts | 102° |
| 2026-04-27 20:32 | 44.53794 | 15.58027 | 37153 ft | 470 kts | 102° |
| 2026-04-27 20:33 | 44.52174 | 15.66840 | 37149 ft | 470 kts | 102° |
| 2026-04-27 20:33 | 44.50534 | 15.75703 | 37154 ft | 470 kts | 102° |
| 2026-04-27 20:34 | 44.48894 | 15.84556 | 37140 ft | 469 kts | 102° |
| 2026-04-27 20:34 | 44.47245 | 15.93392 | 37104 ft | 470 kts | 103° |
| 2026-04-27 20:35 | 44.45583 | 16.02246 | 37078 ft | 470 kts | 103° |
| 2026-04-27 20:35 | 44.43920 | 16.11092 | 37080 ft | 470 kts | 103° |
| 2026-04-27 20:36 | 44.42250 | 16.19934 | 37089 ft | 470 kts | 103° |
| 2026-04-27 20:36 | 44.40569 | 16.28766 | 37104 ft | 470 kts | 103° |
| 2026-04-27 20:37 | 44.38884 | 16.37601 | 37126 ft | 470 kts | 103° |
| 2026-04-27 20:37 | 44.37193 | 16.46424 | 37146 ft | 470 kts | 103° |
| 2026-04-27 20:38 | 44.35491 | 16.55250 | 37143 ft | 471 kts | 103° |
| 2026-04-27 20:38 | 44.33784 | 16.64083 | 37119 ft | 471 kts | 103° |
| 2026-04-27 20:39 | 44.32079 | 16.72858 | 37140 ft | 471 kts | 103° |
| 2026-04-27 20:39 | 44.30354 | 16.81681 | 37157 ft | 471 kts | 103° |
| 2026-04-27 20:40 | 44.28559 | 16.90549 | 37156 ft | 472 kts | 104° |
| 2026-04-27 20:40 | 44.26692 | 16.99319 | 37172 ft | 471 kts | 104° |
| 2026-04-27 20:41 | 44.24862 | 17.08099 | 37174 ft | 472 kts | 104° |
| 2026-04-27 20:41 | 44.23040 | 17.16883 | 37173 ft | 471 kts | 104° |
| 2026-04-27 20:42 | 44.21191 | 17.25644 | 37161 ft | 471 kts | 105° |
| 2026-04-27 20:42 | 44.19342 | 17.34396 | 37135 ft | 471 kts | 105° |
| 2026-04-27 20:43 | 44.17486 | 17.43154 | 37117 ft | 471 kts | 105° |
| 2026-04-27 20:43 | 44.15621 | 17.51904 | 37107 ft | 471 kts | 105° |
| 2026-04-27 20:44 | 44.13753 | 17.60659 | 37114 ft | 471 kts | 105° |
| 2026-04-27 20:44 | 44.11877 | 17.69391 | 37165 ft | 470 kts | 105° |
| 2026-04-27 20:45 | 44.09996 | 17.78106 | 37170 ft | 470 kts | 105° |
| 2026-04-27 20:45 | 44.08108 | 17.86823 | 37155 ft | 471 kts | 105° |
| 2026-04-27 20:46 | 44.06216 | 17.95535 | 37155 ft | 471 kts | 105° |
| 2026-04-27 20:46 | 44.04314 | 18.04243 | 37160 ft | 471 kts | 105° |
| 2026-04-27 20:47 | 44.02408 | 18.12943 | 37171 ft | 471 kts | 105° |
| 2026-04-27 20:47 | 44.00494 | 18.21640 | 37183 ft | 471 kts | 105° |
| 2026-04-27 20:48 | 43.98895 | 18.28863 | 37189 ft | 471 kts | 105° |
| 2026-04-27 20:48 | 43.96644 | 18.39018 | 37186 ft | 471 kts | 105° |
| 2026-04-27 20:49 | 43.94722 | 18.47650 | 37190 ft | 471 kts | 106° |
| 2026-04-27 20:49 | 43.92781 | 18.56326 | 37189 ft | 471 kts | 106° |
| 2026-04-27 20:50 | 43.90836 | 18.64997 | 37190 ft | 471 kts | 106° |
| 2026-04-27 20:50 | 43.88879 | 18.73667 | 37190 ft | 471 kts | 106° |
| 2026-04-27 20:51 | 43.86903 | 18.82393 | 37169 ft | 471 kts | 106° |
| 2026-04-27 20:51 | 43.84937 | 18.91049 | 37129 ft | 471 kts | 106° |
| 2026-04-27 20:52 | 43.82956 | 18.99715 | 37109 ft | 472 kts | 106° |
| 2026-04-27 20:52 | 43.80973 | 19.08374 | 37109 ft | 472 kts | 106° |
| 2026-04-27 20:53 | 43.78980 | 19.17037 | 37147 ft | 472 kts | 106° |
| 2026-04-27 20:53 | 43.77016 | 19.25701 | 37161 ft | 472 kts | 104° |
| 2026-04-27 20:54 | 43.74295 | 19.38801 | 37154 ft | 472 kts | 104° |
| 2026-04-27 20:55 | 43.72479 | 19.47523 | 37184 ft | 472 kts | 104° |
| 2026-04-27 20:55 | 43.70652 | 19.56236 | 37205 ft | 472 kts | 104° |
| 2026-04-27 20:56 | 43.68816 | 19.64947 | 37206 ft | 472 kts | 104° |
| 2026-04-27 20:56 | 43.66976 | 19.73656 | 37202 ft | 472 kts | 104° |
| 2026-04-27 20:57 | 43.65130 | 19.82364 | 37178 ft | 473 kts | 104° |
| 2026-04-27 20:57 | 43.63273 | 19.91071 | 37174 ft | 473 kts | 104° |
| 2026-04-27 20:58 | 43.61410 | 19.99768 | 37172 ft | 473 kts | 104° |
| 2026-04-27 20:58 | 43.59555 | 20.08404 | 37162 ft | 473 kts | 104° |
| 2026-04-27 20:59 | 43.57680 | 20.17093 | 37190 ft | 472 kts | 105° |
| 2026-04-27 20:59 | 43.55799 | 20.25768 | 37178 ft | 473 kts | 105° |
| 2026-04-27 21:00 | 43.53910 | 20.34444 | 37194 ft | 472 kts | 105° |
| 2026-04-27 21:00 | 43.52019 | 20.43102 | 37202 ft | 472 kts | 105° |
| 2026-04-27 21:01 | 43.50121 | 20.51761 | 37168 ft | 472 kts | 105° |
| 2026-04-27 21:01 | 43.48213 | 20.60422 | 37156 ft | 473 kts | 105° |
| 2026-04-27 21:02 | 43.46298 | 20.69076 | 37151 ft | 473 kts | 105° |
| 2026-04-27 21:02 | 43.44374 | 20.77736 | 37151 ft | 473 kts | 105° |
| 2026-04-27 21:03 | 43.42445 | 20.86394 | 37159 ft | 473 kts | 105° |
| 2026-04-27 21:03 | 43.40506 | 20.95049 | 37167 ft | 474 kts | 106° |
| 2026-04-27 21:04 | 43.38561 | 21.03700 | 37187 ft | 474 kts | 106° |
| 2026-04-27 21:04 | 43.36614 | 21.12345 | 37208 ft | 472 kts | 106° |
| 2026-04-27 21:04 | 43.35643 | 21.16635 | 36969 ft | 468 kts | 106° |
| 2026-04-27 21:05 | 43.34676 | 21.20895 | 36339 ft | 468 kts | 106° |
| 2026-04-27 21:05 | 43.33699 | 21.25192 | 35412 ft | 475 kts | 106° |
| 2026-04-27 21:05 | 43.32709 | 21.29540 | 34615 ft | 478 kts | 106° |
| 2026-04-27 21:05 | 43.31719 | 21.33882 | 34040 ft | 476 kts | 106° |
| 2026-04-27 21:06 | 43.30729 | 21.38217 | 33321 ft | 476 kts | 106° |
| 2026-04-27 21:06 | 43.29732 | 21.42569 | 32508 ft | 479 kts | 106° |
| 2026-04-27 21:06 | 43.28729 | 21.46940 | 31721 ft | 481 kts | 107° |
| 2026-04-27 21:06 | 43.28062 | 21.49845 | 31171 ft | 482 kts | 107° |
| 2026-04-27 21:07 | 43.27051 | 21.54242 | 30400 ft | 483 kts | 107° |
| 2026-04-27 21:07 | 43.26040 | 21.58615 | 29832 ft | 479 kts | 107° |
| 2026-04-27 21:07 | 43.25036 | 21.62947 | 29248 ft | 474 kts | 107° |
| 2026-04-27 21:07 | 43.24040 | 21.67239 | 28650 ft | 470 kts | 107° |
| 2026-04-27 21:08 | 43.23051 | 21.71497 | 28021 ft | 467 kts | 107° |
| 2026-04-27 21:08 | 43.22068 | 21.75726 | 27412 ft | 463 kts | 107° |
| 2026-04-27 21:08 | 43.21079 | 21.79972 | 26806 ft | 460 kts | 107° |
| 2026-04-27 21:08 | 43.20111 | 21.84122 | 26304 ft | 454 kts | 107° |
| 2026-04-27 21:09 | 43.19154 | 21.88211 | 25732 ft | 449 kts | 107° |
| 2026-04-27 21:09 | 43.18211 | 21.92238 | 24953 ft | 451 kts | 107° |
| 2026-04-27 21:09 | 43.17253 | 21.96322 | 24269 ft | 449 kts | 107° |
| 2026-04-27 21:09 | 43.16297 | 22.00381 | 23660 ft | 446 kts | 107° |
| 2026-04-27 21:10 | 43.15347 | 22.04411 | 23060 ft | 443 kts | 107° |
| 2026-04-27 21:10 | 43.14405 | 22.08402 | 22480 ft | 439 kts | 107° |
| 2026-04-27 21:10 | 43.13469 | 22.12365 | 21809 ft | 437 kts | 107° |
| 2026-04-27 21:10 | 43.12533 | 22.16319 | 21104 ft | 436 kts | 107° |
| 2026-04-27 21:11 | 43.11604 | 22.20230 | 20715 ft | 426 kts | 108° |
| 2026-04-27 21:11 | 43.10701 | 22.24025 | 20504 ft | 412 kts | 108° |
| 2026-04-27 21:11 | 43.09824 | 22.27706 | 20032 ft | 403 kts | 108° |
| 2026-04-27 21:11 | 43.08957 | 22.31342 | 19270 ft | 401 kts | 108° |
| 2026-04-27 21:12 | 43.08094 | 22.34958 | 18540 ft | 399 kts | 108° |
| 2026-04-27 21:12 | 43.07236 | 22.38545 | 17846 ft | 395 kts | 108° |
| 2026-04-27 21:12 | 43.06386 | 22.42092 | 17151 ft | 391 kts | 108° |
| 2026-04-27 21:12 | 43.05542 | 22.45605 | 16462 ft | 387 kts | 108° |
| 2026-04-27 21:13 | 43.04704 | 22.49088 | 15772 ft | 383 kts | 108° |
| 2026-04-27 21:13 | 43.03874 | 22.52534 | 15116 ft | 381 kts | 108° |
| 2026-04-27 21:13 | 43.03049 | 22.55959 | 14584 ft | 377 kts | 107° |
| 2026-04-27 21:13 | 43.02240 | 22.59348 | 14060 ft | 373 kts | 107° |
| 2026-04-27 21:14 | 43.01435 | 22.62695 | 13527 ft | 369 kts | 107° |
| 2026-04-27 21:14 | 43.00627 | 22.66010 | 12964 ft | 367 kts | 107° |
| 2026-04-27 21:14 | 42.99824 | 22.69302 | 12414 ft | 364 kts | 107° |
| 2026-04-27 21:14 | 42.99029 | 22.72573 | 11852 ft | 361 kts | 107° |
| 2026-04-27 21:15 | 42.98241 | 22.75819 | 11309 ft | 359 kts | 107° |
| 2026-04-27 21:15 | 42.97439 | 22.79030 | 10755 ft | 356 kts | 110° |
| 2026-04-27 21:15 | 42.96306 | 22.82035 | 10217 ft | 355 kts | 120° |
| 2026-04-27 21:15 | 42.95017 | 22.84861 | 9899 ft | 345 kts | 122° |
| 2026-04-27 21:16 | 42.93648 | 22.87469 | 9740 ft | 331 kts | 128° |
| 2026-04-27 21:16 | 42.92187 | 22.89808 | 9601 ft | 317 kts | 131° |
| 2026-04-27 21:16 | 42.90741 | 22.92000 | 9465 ft | 304 kts | 132° |
| 2026-04-27 21:16 | 42.89345 | 22.94120 | 9159 ft | 299 kts | 131° |
| 2026-04-27 21:17 | 42.87970 | 22.96260 | 8670 ft | 301 kts | 130° |
| 2026-04-27 21:17 | 42.86619 | 22.98420 | 8289 ft | 298 kts | 130° |
| 2026-04-27 21:17 | 42.85277 | 23.00566 | 7871 ft | 297 kts | 130° |
| 2026-04-27 21:17 | 42.83936 | 23.02687 | 7481 ft | 295 kts | 130° |
| 2026-04-27 21:18 | 42.82599 | 23.04784 | 7163 ft | 289 kts | 131° |
| 2026-04-27 21:18 | 42.81306 | 23.06822 | 6942 ft | 281 kts | 130° |
| 2026-04-27 21:18 | 42.80034 | 23.08843 | 6492 ft | 282 kts | 130° |
| 2026-04-27 21:18 | 42.78752 | 23.10868 | 6079 ft | 281 kts | 130° |
| 2026-04-27 21:19 | 42.77479 | 23.12864 | 5732 ft | 278 kts | 131° |
| 2026-04-27 21:19 | 42.76217 | 23.14846 | 5385 ft | 275 kts | 130° |
| 2026-04-27 21:19 | 42.75028 | 23.16816 | 5245 ft | 264 kts | 128° |
| 2026-04-27 21:20 | 42.72739 | 23.20417 | 5029 ft | 240 kts | 133° |
| 2026-04-27 21:20 | 42.71624 | 23.22072 | 4788 ft | 235 kts | 129° |
| 2026-04-27 21:20 | 42.70849 | 23.24019 | 4322 ft | 239 kts | 106° |
| 2026-04-27 21:20 | 42.70558 | 23.26281 | 3732 ft | 248 kts | 94° |
| 2026-04-27 21:21 | 42.70428 | 23.28584 | 3410 ft | 237 kts | 93° |
| 2026-04-27 21:21 | 42.70316 | 23.30743 | 3113 ft | 221 kts | 93° |
| 2026-04-27 21:21 | 42.70193 | 23.32718 | 2865 ft | 198 kts | 94° |
| 2026-04-27 21:21 | 42.70085 | 23.34470 | 2604 ft | 176 kts | 94° |
| 2026-04-27 21:22 | 42.69990 | 23.36049 | 2387 ft | 158 kts | 95° |
| 2026-04-27 21:22 | 42.69910 | 23.37477 | 2138 ft | 146 kts | 96° |
| 2026-04-27 21:22 | 42.69829 | 23.38792 | 1948 ft | 136 kts | 95° |
| 2026-04-27 21:22 | 42.69748 | 23.40098 | 1781 ft | 140 kts | 96° |
| 2026-04-27 21:23 | 42.69672 | 23.41334 | 1757 ft | 114 kts | 95° |
| 2026-04-27 21:23 | 42.69622 | 23.42127 | 1757 ft | 62 kts | 95° |
| 2026-04-27 21:23 | 42.69589 | 23.42491 | 1757 ft | 18 kts | 105° |
| 2026-04-27 21:23 | 42.69543 | 23.42622 | 1757 ft | 15 kts | 121° |
| 2026-04-27 21:24 | 42.69478 | 23.42748 | 1757 ft | 17 kts | 134° |
| 2026-04-27 21:24 | 42.69424 | 23.42744 | 1757 ft | 9 kts | 223° |
| 2026-04-27 21:24 | 42.69402 | 23.42651 | 1757 ft | 9 kts | 276° |
| 2026-04-27 21:24 | 42.69409 | 23.42555 | 1757 ft | 12 kts | 276° |
| 2026-04-27 21:25 | 42.69417 | 23.42427 | 1757 ft | 15 kts | 274° |
| 2026-04-27 21:25 | 42.69425 | 23.42270 | 1757 ft | 18 kts | 274° |
| 2026-04-27 21:25 | 42.69438 | 23.42082 | 1757 ft | 21 kts | 275° |
| 2026-04-27 21:25 | 42.69451 | 23.41881 | 1757 ft | 21 kts | 275° |
| 2026-04-27 21:26 | 42.69461 | 23.41718 | 1757 ft | 19 kts | 275° |
| 2026-04-27 21:26 | 42.69473 | 23.41525 | 1757 ft | 22 kts | 274° |
| 2026-04-27 21:26 | 42.69484 | 23.41304 | 1757 ft | 24 kts | 274° |
| 2026-04-27 21:26 | 42.69498 | 23.41071 | 1757 ft | 25 kts | 275° |
| 2026-04-27 21:27 | 42.69513 | 23.40836 | 1757 ft | 25 kts | 275° |
| 2026-04-27 21:27 | 42.69527 | 23.40609 | 1757 ft | 19 kts | 275° |
| 2026-04-27 21:27 | 42.69493 | 23.40479 | 1757 ft | 15 kts | 201° |
| 2026-04-27 21:27 | 42.69394 | 23.40437 | 1757 ft | 15 kts | 197° |
| 2026-04-27 21:28 | 42.69291 | 23.40397 | 1757 ft | 16 kts | 194° |
| 2026-04-27 21:28 | 42.69195 | 23.40355 | 1757 ft | 10 kts | 198° |
| 2026-04-27 21:28 | 42.69160 | 23.40289 | 1757 ft | 10 kts | 276° |
| 2026-04-27 21:28 | 42.69162 | 23.40232 | 1757 ft | 4 kts | 231° |
| 2026-04-27 21:29 | 42.69132 | 23.40210 | 1757 ft | 5 kts | 199° |
| 2026-04-27 21:29 | 42.69109 | 23.40201 | 1757 ft | 1 kts | 195° |
| 2026-04-27 21:29 | 42.69105 | 23.40200 | 1757 ft | 0 kts | 195° |